sensor_id;sensor_type;location;lat;lon;timestamp;temperature;humidity
57829;DHT22;43657;52.698;6.314;2023-08-20T00:02:25;14.80;99.90
57829;DHT22;43657;52.698;6.314;2023-08-20T00:04:53;14.80;99.90
57829;DHT22;43657;52.698;6.314;2023-08-20T00:07:22;14.90;99.90
57829;DHT22;43657;52.698;6.314;2023-08-20T00:09:48;14.80;99.90
57829;DHT22;43657;52.698;6.314;2023-08-20T00:12:14;14.80;99.90
57829;DHT22;43657;52.698;6.314;2023-08-20T00:17:22;14.70;99.90
57829;DHT22;43657;52.698;6.314;2023-08-20T00:19:50;14.60;99.90
57829;DHT22;43657;52.698;6.314;2023-08-20T00:22:16;14.60;99.90
57829;DHT22;43657;52.698;6.314;2023-08-20T00:24:42;14.50;99.90
57829;DHT22;43657;52.698;6.314;2023-08-20T00:27:08;14.50;99.90
57829;DHT22;43657;52.698;6.314;2023-08-20T00:29:34;14.40;99.90
57829;DHT22;43657;52.698;6.314;2023-08-20T00:32:00;14.40;99.90
57829;DHT22;43657;52.698;6.314;2023-08-20T00:34:25;14.40;99.90
57829;DHT22;43657;52.698;6.314;2023-08-20T00:36:54;14.40;99.90
57829;DHT22;43657;52.698;6.314;2023-08-20T00:39:19;14.30;99.90
57829;DHT22;43657;52.698;6.314;2023-08-20T00:41:45;14.30;99.90
57829;DHT22;43657;52.698;6.314;2023-08-20T00:44:11;14.30;99.90
57829;DHT22;43657;52.698;6.314;2023-08-20T00:46:37;14.20;99.90
57829;DHT22;43657;52.698;6.314;2023-08-20T00:49:02;14.20;99.90
57829;DHT22;43657;52.698;6.314;2023-08-20T00:51:28;14.20;99.90
57829;DHT22;43657;52.698;6.314;2023-08-20T00:53:55;14.20;99.90
57829;DHT22;43657;52.698;6.314;2023-08-20T00:56:21;14.10;99.90
57829;DHT22;43657;52.698;6.314;2023-08-20T00:58:47;14.10;99.90
57829;DHT22;43657;52.698;6.314;2023-08-20T01:01:12;14.10;99.90
57829;DHT22;43657;52.698;6.314;2023-08-20T01:03:38;14.00;99.90
57829;DHT22;43657;52.698;6.314;2023-08-20T01:06:37;14.00;99.90
57829;DHT22;43657;52.698;6.314;2023-08-20T01:12:06;14.10;99.90
57829;DHT22;43657;52.698;6.314;2023-08-20T01:14:32;14.00;99.90
57829;DHT22;43657;52.698;6.314;2023-08-20T01:16:58;14.00;99.90
57829;DHT22;43657;52.698;6.314;2023-08-20T01:19:24;14.00;99.90
57829;DHT22;43657;52.698;6.314;2023-08-20T01:30:06;13.80;99.90
57829;DHT22;43657;52.698;6.314;2023-08-20T01:32:34;13.80;99.90
57829;DHT22;43657;52.698;6.314;2023-08-20T01:35:00;13.80;99.90
57829;DHT22;43657;52.698;6.314;2023-08-20T01:37:26;13.80;99.90
57829;DHT22;43657;52.698;6.314;2023-08-20T01:39:52;13.80;99.90
57829;DHT22;43657;52.698;6.314;2023-08-20T01:42:18;13.90;99.90
57829;DHT22;43657;52.698;6.314;2023-08-20T01:44:44;13.90;99.90
57829;DHT22;43657;52.698;6.314;2023-08-20T01:47:10;14.00;99.90
57829;DHT22;43657;52.698;6.314;2023-08-20T01:49:35;14.00;99.90
57829;DHT22;43657;52.698;6.314;2023-08-20T01:52:01;13.90;99.90
57829;DHT22;43657;52.698;6.314;2023-08-20T01:54:27;13.90;99.90
57829;DHT22;43657;52.698;6.314;2023-08-20T01:56:54;13.90;99.90
57829;DHT22;43657;52.698;6.314;2023-08-20T01:59:22;13.90;99.90
57829;DHT22;43657;52.698;6.314;2023-08-20T02:01:49;13.80;99.90
57829;DHT22;43657;52.698;6.314;2023-08-20T02:04:14;13.80;99.90
57829;DHT22;43657;52.698;6.314;2023-08-20T02:06:40;13.80;99.90
57829;DHT22;43657;52.698;6.314;2023-08-20T02:09:05;13.80;99.90
57829;DHT22;43657;52.698;6.314;2023-08-20T02:11:31;13.80;99.90
57829;DHT22;43657;52.698;6.314;2023-08-20T02:14:01;13.80;99.90
57829;DHT22;43657;52.698;6.314;2023-08-20T02:16:27;13.80;99.90
57829;DHT22;43657;52.698;6.314;2023-08-20T02:18:52;13.80;99.90
57829;DHT22;43657;52.698;6.314;2023-08-20T02:21:18;13.70;99.90
57829;DHT22;43657;52.698;6.314;2023-08-20T02:23:43;13.80;99.90
57829;DHT22;43657;52.698;6.314;2023-08-20T02:26:09;13.90;99.90
57829;DHT22;43657;52.698;6.314;2023-08-20T02:28:35;13.90;99.90
57829;DHT22;43657;52.698;6.314;2023-08-20T02:31:04;13.90;99.90
57829;DHT22;43657;52.698;6.314;2023-08-20T02:33:30;13.90;99.90
57829;DHT22;43657;52.698;6.314;2023-08-20T02:36:00;13.90;99.90
57829;DHT22;43657;52.698;6.314;2023-08-20T02:38:25;13.90;99.90
57829;DHT22;43657;52.698;6.314;2023-08-20T02:40:51;13.80;99.90
57829;DHT22;43657;52.698;6.314;2023-08-20T02:43:16;13.80;99.90
57829;DHT22;43657;52.698;6.314;2023-08-20T02:45:42;13.80;99.90
57829;DHT22;43657;52.698;6.314;2023-08-20T02:48:08;13.80;99.90
57829;DHT22;43657;52.698;6.314;2023-08-20T02:50:34;13.80;99.90
57829;DHT22;43657;52.698;6.314;2023-08-20T02:53:00;13.80;99.90
57829;DHT22;43657;52.698;6.314;2023-08-20T02:55:26;13.80;99.90
57829;DHT22;43657;52.698;6.314;2023-08-20T02:57:51;13.80;99.90
57829;DHT22;43657;52.698;6.314;2023-08-20T03:00:17;13.90;99.90
57829;DHT22;43657;52.698;6.314;2023-08-20T03:02:42;13.90;99.90
57829;DHT22;43657;52.698;6.314;2023-08-20T03:05:09;13.90;99.90
57829;DHT22;43657;52.698;6.314;2023-08-20T03:07:35;14.00;99.90
57829;DHT22;43657;52.698;6.314;2023-08-20T03:10:00;14.00;99.90
57829;DHT22;43657;52.698;6.314;2023-08-20T03:12:26;14.00;99.90
57829;DHT22;43657;52.698;6.314;2023-08-20T03:14:52;14.00;99.90
57829;DHT22;43657;52.698;6.314;2023-08-20T03:17:17;14.00;99.90
57829;DHT22;43657;52.698;6.314;2023-08-20T03:19:57;14.00;99.90
57829;DHT22;43657;52.698;6.314;2023-08-20T03:22:23;14.00;99.90
57829;DHT22;43657;52.698;6.314;2023-08-20T03:24:49;14.00;99.90
57829;DHT22;43657;52.698;6.314;2023-08-20T03:27:15;14.00;99.90
57829;DHT22;43657;52.698;6.314;2023-08-20T03:29:41;14.00;99.90
57829;DHT22;43657;52.698;6.314;2023-08-20T03:32:07;14.10;99.90
57829;DHT22;43657;52.698;6.314;2023-08-20T03:34:32;14.00;99.90
57829;DHT22;43657;52.698;6.314;2023-08-20T03:36:58;14.00;99.90
57829;DHT22;43657;52.698;6.314;2023-08-20T03:39:23;14.00;99.90
57829;DHT22;43657;52.698;6.314;2023-08-20T03:41:50;14.00;99.90
57829;DHT22;43657;52.698;6.314;2023-08-20T03:44:16;14.00;99.90
57829;DHT22;43657;52.698;6.314;2023-08-20T03:46:41;14.00;99.90
57829;DHT22;43657;52.698;6.314;2023-08-20T03:49:07;14.00;99.90
57829;DHT22;43657;52.698;6.314;2023-08-20T03:51:32;14.00;99.90
57829;DHT22;43657;52.698;6.314;2023-08-20T03:53:58;14.00;99.90
57829;DHT22;43657;52.698;6.314;2023-08-20T03:56:24;13.90;99.90
57829;DHT22;43657;52.698;6.314;2023-08-20T03:58:50;13.90;99.90
57829;DHT22;43657;52.698;6.314;2023-08-20T04:01:16;13.90;99.90
57829;DHT22;43657;52.698;6.314;2023-08-20T04:03:41;13.80;99.90
57829;DHT22;43657;52.698;6.314;2023-08-20T04:06:07;13.80;99.90
57829;DHT22;43657;52.698;6.314;2023-08-20T04:08:32;13.80;99.90
57829;DHT22;43657;52.698;6.314;2023-08-20T04:10:58;13.70;99.90
57829;DHT22;43657;52.698;6.314;2023-08-20T04:13:24;13.70;99.90
57829;DHT22;43657;52.698;6.314;2023-08-20T04:15:51;13.70;99.90
57829;DHT22;43657;52.698;6.314;2023-08-20T04:18:17;13.60;99.90
57829;DHT22;43657;52.698;6.314;2023-08-20T04:20:42;13.60;99.90
57829;DHT22;43657;52.698;6.314;2023-08-20T04:23:08;13.60;99.90
57829;DHT22;43657;52.698;6.314;2023-08-20T04:25:35;13.50;99.90
57829;DHT22;43657;52.698;6.314;2023-08-20T04:28:00;13.50;99.90
57829;DHT22;43657;52.698;6.314;2023-08-20T04:30:26;13.60;99.90
57829;DHT22;43657;52.698;6.314;2023-08-20T04:32:51;13.60;99.90
57829;DHT22;43657;52.698;6.314;2023-08-20T04:35:17;13.70;99.90
57829;DHT22;43657;52.698;6.314;2023-08-20T04:37:42;13.70;99.90
57829;DHT22;43657;52.698;6.314;2023-08-20T04:40:08;13.80;99.90
57829;DHT22;43657;52.698;6.314;2023-08-20T04:42:34;13.80;99.90
57829;DHT22;43657;52.698;6.314;2023-08-20T04:45:00;13.80;99.90
57829;DHT22;43657;52.698;6.314;2023-08-20T04:47:25;13.80;99.90
57829;DHT22;43657;52.698;6.314;2023-08-20T04:49:51;13.80;99.90
57829;DHT22;43657;52.698;6.314;2023-08-20T04:52:17;13.80;99.90
57829;DHT22;43657;52.698;6.314;2023-08-20T04:54:42;13.80;99.90
57829;DHT22;43657;52.698;6.314;2023-08-20T04:57:08;13.80;99.90
57829;DHT22;43657;52.698;6.314;2023-08-20T04:59:33;13.80;99.90
57829;DHT22;43657;52.698;6.314;2023-08-20T05:01:59;13.80;99.90
57829;DHT22;43657;52.698;6.314;2023-08-20T05:04:24;13.80;99.90
57829;DHT22;43657;52.698;6.314;2023-08-20T05:06:50;13.80;99.90
57829;DHT22;43657;52.698;6.314;2023-08-20T05:09:16;13.80;99.90
57829;DHT22;43657;52.698;6.314;2023-08-20T05:11:42;13.80;99.90
57829;DHT22;43657;52.698;6.314;2023-08-20T05:14:07;13.80;99.90
57829;DHT22;43657;52.698;6.314;2023-08-20T05:16:33;13.80;99.90
57829;DHT22;43657;52.698;6.314;2023-08-20T05:18:58;13.90;99.90
57829;DHT22;43657;52.698;6.314;2023-08-20T05:21:24;13.90;99.90
57829;DHT22;43657;52.698;6.314;2023-08-20T05:23:50;13.90;99.90
57829;DHT22;43657;52.698;6.314;2023-08-20T05:26:15;13.90;99.90
57829;DHT22;43657;52.698;6.314;2023-08-20T05:28:41;14.00;99.90
57829;DHT22;43657;52.698;6.314;2023-08-20T05:31:06;14.00;99.90
57829;DHT22;43657;52.698;6.314;2023-08-20T05:33:32;14.10;99.90
57829;DHT22;43657;52.698;6.314;2023-08-20T05:35:59;14.10;99.90
57829;DHT22;43657;52.698;6.314;2023-08-20T05:38:25;14.10;99.90
57829;DHT22;43657;52.698;6.314;2023-08-20T05:40:51;14.20;99.90
57829;DHT22;43657;52.698;6.314;2023-08-20T05:43:16;14.20;99.90
57829;DHT22;43657;52.698;6.314;2023-08-20T05:45:42;14.30;99.90
57829;DHT22;43657;52.698;6.314;2023-08-20T05:48:08;14.30;99.90
57829;DHT22;43657;52.698;6.314;2023-08-20T05:50:33;14.40;99.90
57829;DHT22;43657;52.698;6.314;2023-08-20T05:53:00;14.50;99.90
57829;DHT22;43657;52.698;6.314;2023-08-20T05:55:26;14.50;99.90
57829;DHT22;43657;52.698;6.314;2023-08-20T05:57:52;14.60;99.90
57829;DHT22;43657;52.698;6.314;2023-08-20T06:00:18;14.70;99.90
57829;DHT22;43657;52.698;6.314;2023-08-20T06:02:43;14.70;99.90
57829;DHT22;43657;52.698;6.314;2023-08-20T06:05:10;14.80;99.90
57829;DHT22;43657;52.698;6.314;2023-08-20T06:07:35;14.90;99.90
57829;DHT22;43657;52.698;6.314;2023-08-20T06:10:01;15.00;99.90
57829;DHT22;43657;52.698;6.314;2023-08-20T06:12:27;15.00;99.90
57829;DHT22;43657;52.698;6.314;2023-08-20T06:14:52;15.10;99.90
57829;DHT22;43657;52.698;6.314;2023-08-20T06:17:18;15.20;99.90
57829;DHT22;43657;52.698;6.314;2023-08-20T06:19:44;15.30;99.90
57829;DHT22;43657;52.698;6.314;2023-08-20T06:22:10;15.40;99.90
57829;DHT22;43657;52.698;6.314;2023-08-20T06:24:35;15.50;99.90
57829;DHT22;43657;52.698;6.314;2023-08-20T06:27:01;15.50;99.90
57829;DHT22;43657;52.698;6.314;2023-08-20T06:29:26;15.50;99.90
57829;DHT22;43657;52.698;6.314;2023-08-20T06:31:52;15.70;99.90
57829;DHT22;43657;52.698;6.314;2023-08-20T06:34:18;15.80;99.90
57829;DHT22;43657;52.698;6.314;2023-08-20T06:36:44;15.80;99.90
57829;DHT22;43657;52.698;6.314;2023-08-20T06:39:09;15.90;99.90
57829;DHT22;43657;52.698;6.314;2023-08-20T06:41:35;16.00;99.90
57829;DHT22;43657;52.698;6.314;2023-08-20T06:44:02;16.10;99.90
57829;DHT22;43657;52.698;6.314;2023-08-20T06:46:28;16.20;99.90
57829;DHT22;43657;52.698;6.314;2023-08-20T06:48:54;16.30;99.90
57829;DHT22;43657;52.698;6.314;2023-08-20T06:51:20;16.40;99.90
57829;DHT22;43657;52.698;6.314;2023-08-20T06:53:47;16.50;99.90
57829;DHT22;43657;52.698;6.314;2023-08-20T06:56:12;16.50;99.90
57829;DHT22;43657;52.698;6.314;2023-08-20T06:58:39;16.60;99.90
57829;DHT22;43657;52.698;6.314;2023-08-20T07:01:05;16.70;99.90
57829;DHT22;43657;52.698;6.314;2023-08-20T07:03:42;16.80;99.90
57829;DHT22;43657;52.698;6.314;2023-08-20T07:06:08;16.80;99.90
57829;DHT22;43657;52.698;6.314;2023-08-20T07:08:35;16.80;99.90
57829;DHT22;43657;52.698;6.314;2023-08-20T07:11:02;16.80;99.90
57829;DHT22;43657;52.698;6.314;2023-08-20T07:13:28;16.90;99.90
57829;DHT22;43657;52.698;6.314;2023-08-20T07:15:54;16.90;99.90
57829;DHT22;43657;52.698;6.314;2023-08-20T07:18:20;17.00;99.90
57829;DHT22;43657;52.698;6.314;2023-08-20T07:20:46;17.10;99.90
57829;DHT22;43657;52.698;6.314;2023-08-20T07:23:11;17.10;99.90
57829;DHT22;43657;52.698;6.314;2023-08-20T07:25:38;17.20;99.90
57829;DHT22;43657;52.698;6.314;2023-08-20T07:28:08;17.30;99.90
57829;DHT22;43657;52.698;6.314;2023-08-20T07:30:34;17.30;99.90
57829;DHT22;43657;52.698;6.314;2023-08-20T07:33:01;17.40;99.90
57829;DHT22;43657;52.698;6.314;2023-08-20T07:35:27;17.50;99.90
57829;DHT22;43657;52.698;6.314;2023-08-20T07:37:52;17.50;99.90
57829;DHT22;43657;52.698;6.314;2023-08-20T07:40:18;17.60;99.90
57829;DHT22;43657;52.698;6.314;2023-08-20T07:42:44;17.70;99.90
57829;DHT22;43657;52.698;6.314;2023-08-20T07:45:10;17.70;99.90
57829;DHT22;43657;52.698;6.314;2023-08-20T07:47:37;17.80;99.90
57829;DHT22;43657;52.698;6.314;2023-08-20T07:50:03;17.80;99.90
57829;DHT22;43657;52.698;6.314;2023-08-20T07:52:30;17.90;99.90
57829;DHT22;43657;52.698;6.314;2023-08-20T07:54:56;18.00;99.90
57829;DHT22;43657;52.698;6.314;2023-08-20T07:57:23;18.00;99.90
57829;DHT22;43657;52.698;6.314;2023-08-20T07:59:49;18.10;99.90
57829;DHT22;43657;52.698;6.314;2023-08-20T08:02:15;18.20;99.90
57829;DHT22;43657;52.698;6.314;2023-08-20T08:04:41;18.20;99.90
57829;DHT22;43657;52.698;6.314;2023-08-20T08:07:08;18.30;99.90
57829;DHT22;43657;52.698;6.314;2023-08-20T08:09:33;18.40;99.90
57829;DHT22;43657;52.698;6.314;2023-08-20T08:12:00;18.40;99.90
57829;DHT22;43657;52.698;6.314;2023-08-20T08:14:26;18.50;99.90
57829;DHT22;43657;52.698;6.314;2023-08-20T08:16:52;18.60;99.90
57829;DHT22;43657;52.698;6.314;2023-08-20T08:19:18;18.70;99.90
57829;DHT22;43657;52.698;6.314;2023-08-20T08:21:46;18.80;99.90
57829;DHT22;43657;52.698;6.314;2023-08-20T08:24:13;18.90;99.90
57829;DHT22;43657;52.698;6.314;2023-08-20T08:26:39;19.10;99.90
57829;DHT22;43657;52.698;6.314;2023-08-20T08:29:06;19.20;99.90
57829;DHT22;43657;52.698;6.314;2023-08-20T08:31:33;19.70;99.90
57829;DHT22;43657;52.698;6.314;2023-08-20T08:33:59;20.50;99.90
57829;DHT22;43657;52.698;6.314;2023-08-20T08:36:25;21.50;99.90
57829;DHT22;43657;52.698;6.314;2023-08-20T08:38:52;22.40;99.90
57829;DHT22;43657;52.698;6.314;2023-08-20T08:41:21;23.10;99.90
57829;DHT22;43657;52.698;6.314;2023-08-20T08:43:51;23.90;99.90
57829;DHT22;43657;52.698;6.314;2023-08-20T08:46:17;24.60;99.90
57829;DHT22;43657;52.698;6.314;2023-08-20T08:48:44;25.30;99.90
57829;DHT22;43657;52.698;6.314;2023-08-20T08:51:13;25.90;99.90
57829;DHT22;43657;52.698;6.314;2023-08-20T08:53:42;26.40;99.90
57829;DHT22;43657;52.698;6.314;2023-08-20T08:56:10;26.90;99.90
57829;DHT22;43657;52.698;6.314;2023-08-20T08:58:36;27.30;99.90
57829;DHT22;43657;52.698;6.314;2023-08-20T09:01:02;27.60;99.90
57829;DHT22;43657;52.698;6.314;2023-08-20T09:03:28;28.00;99.90
57829;DHT22;43657;52.698;6.314;2023-08-20T09:05:58;28.20;99.90
57829;DHT22;43657;52.698;6.314;2023-08-20T09:08:37;28.40;99.90
57829;DHT22;43657;52.698;6.314;2023-08-20T09:11:08;28.60;99.90
57829;DHT22;43657;52.698;6.314;2023-08-20T09:13:35;28.90;99.90
57829;DHT22;43657;52.698;6.314;2023-08-20T09:16:17;29.00;99.90
57829;DHT22;43657;52.698;6.314;2023-08-20T09:18:49;29.20;99.90
57829;DHT22;43657;52.698;6.314;2023-08-20T09:21:15;29.30;99.90
57829;DHT22;43657;52.698;6.314;2023-08-20T09:23:45;29.30;99.90
57829;DHT22;43657;52.698;6.314;2023-08-20T09:26:12;29.50;99.90
57829;DHT22;43657;52.698;6.314;2023-08-20T09:28:45;29.50;99.90
57829;DHT22;43657;52.698;6.314;2023-08-20T09:31:14;29.50;99.90
57829;DHT22;43657;52.698;6.314;2023-08-20T09:33:54;29.40;99.90
57829;DHT22;43657;52.698;6.314;2023-08-20T09:36:30;29.50;99.00
57829;DHT22;43657;52.698;6.314;2023-08-20T09:38:57;29.40;99.90
57829;DHT22;43657;52.698;6.314;2023-08-20T09:41:36;29.30;99.90
57829;DHT22;43657;52.698;6.314;2023-08-20T09:44:08;29.20;96.40
57829;DHT22;43657;52.698;6.314;2023-08-20T09:46:35;29.20;99.90
57829;DHT22;43657;52.698;6.314;2023-08-20T09:49:06;29.30;99.90
57829;DHT22;43657;52.698;6.314;2023-08-20T09:51:34;29.40;99.90
57829;DHT22;43657;52.698;6.314;2023-08-20T09:54:18;29.20;99.10
57829;DHT22;43657;52.698;6.314;2023-08-20T09:56:46;29.10;99.90
57829;DHT22;43657;52.698;6.314;2023-08-20T09:59:17;29.10;99.90
57829;DHT22;43657;52.698;6.314;2023-08-20T10:01:46;29.30;99.90
57829;DHT22;43657;52.698;6.314;2023-08-20T10:04:13;29.30;99.90
57829;DHT22;43657;52.698;6.314;2023-08-20T10:06:44;29.00;99.90
57829;DHT22;43657;52.698;6.314;2023-08-20T10:09:14;29.00;99.90
57829;DHT22;43657;52.698;6.314;2023-08-20T10:11:43;29.20;99.90
57829;DHT22;43657;52.698;6.314;2023-08-20T10:14:22;29.20;95.00
57829;DHT22;43657;52.698;6.314;2023-08-20T10:16:54;28.80;94.90
57829;DHT22;43657;52.698;6.314;2023-08-20T10:19:42;28.20;99.90
57829;DHT22;43657;52.698;6.314;2023-08-20T10:22:25;28.30;99.90
57829;DHT22;43657;52.698;6.314;2023-08-20T10:25:00;28.50;99.90
57829;DHT22;43657;52.698;6.314;2023-08-20T10:27:33;28.70;99.90
57829;DHT22;43657;52.698;6.314;2023-08-20T10:30:19;28.90;99.90
57829;DHT22;43657;52.698;6.314;2023-08-20T10:32:59;29.10;93.00
57829;DHT22;43657;52.698;6.314;2023-08-20T10:35:47;29.20;99.80
57829;DHT22;43657;52.698;6.314;2023-08-20T10:38:19;29.40;98.10
57829;DHT22;43657;52.698;6.314;2023-08-20T10:40:58;29.40;99.90
57829;DHT22;43657;52.698;6.314;2023-08-20T10:43:37;29.50;94.90
57829;DHT22;43657;52.698;6.314;2023-08-20T10:46:05;29.60;81.10
57829;DHT22;43657;52.698;6.314;2023-08-20T10:48:39;29.60;97.40
57829;DHT22;43657;52.698;6.314;2023-08-20T10:51:12;29.60;93.00
57829;DHT22;43657;52.698;6.314;2023-08-20T10:53:41;29.60;87.50
57829;DHT22;43657;52.698;6.314;2023-08-20T10:56:10;29.60;89.20
57829;DHT22;43657;52.698;6.314;2023-08-20T10:58:40;29.70;87.10
57829;DHT22;43657;52.698;6.314;2023-08-20T11:01:24;29.70;92.40
57829;DHT22;43657;52.698;6.314;2023-08-20T11:03:51;29.70;90.00
57829;DHT22;43657;52.698;6.314;2023-08-20T11:06:18;29.70;86.80
57829;DHT22;43657;52.698;6.314;2023-08-20T11:08:49;29.90;92.50
57829;DHT22;43657;52.698;6.314;2023-08-20T11:11:17;30.00;84.10
57829;DHT22;43657;52.698;6.314;2023-08-20T11:13:49;30.20;79.40
57829;DHT22;43657;52.698;6.314;2023-08-20T11:16:28;30.30;78.10
57829;DHT22;43657;52.698;6.314;2023-08-20T11:18:59;30.50;81.30
57829;DHT22;43657;52.698;6.314;2023-08-20T11:21:31;30.70;77.80
57829;DHT22;43657;52.698;6.314;2023-08-20T11:24:02;30.80;75.20
57829;DHT22;43657;52.698;6.314;2023-08-20T11:26:44;30.80;74.50
57829;DHT22;43657;52.698;6.314;2023-08-20T11:29:12;31.00;76.20
57829;DHT22;43657;52.698;6.314;2023-08-20T11:31:42;31.10;73.30
57829;DHT22;43657;52.698;6.314;2023-08-20T11:34:11;31.30;70.30
57829;DHT22;43657;52.698;6.314;2023-08-20T11:36:39;31.30;69.90
57829;DHT22;43657;52.698;6.314;2023-08-20T11:39:07;31.30;67.30
57829;DHT22;43657;52.698;6.314;2023-08-20T11:41:40;31.30;70.70
57829;DHT22;43657;52.698;6.314;2023-08-20T11:44:26;31.20;69.90
57829;DHT22;43657;52.698;6.314;2023-08-20T11:46:52;31.00;72.20
57829;DHT22;43657;52.698;6.314;2023-08-20T11:49:27;30.90;73.00
57829;DHT22;43657;52.698;6.314;2023-08-20T11:51:55;31.00;71.60
57829;DHT22;43657;52.698;6.314;2023-08-20T11:54:55;31.30;73.80
57829;DHT22;43657;52.698;6.314;2023-08-20T11:57:22;31.10;67.40
57829;DHT22;43657;52.698;6.314;2023-08-20T11:59:50;30.60;68.30
57829;DHT22;43657;52.698;6.314;2023-08-20T12:02:25;30.60;69.50
57829;DHT22;43657;52.698;6.314;2023-08-20T12:04:51;30.70;71.60
57829;DHT22;43657;52.698;6.314;2023-08-20T12:07:17;30.80;74.60
57829;DHT22;43657;52.698;6.314;2023-08-20T12:09:45;30.50;69.80
57829;DHT22;43657;52.698;6.314;2023-08-20T12:12:19;30.30;71.50
57829;DHT22;43657;52.698;6.314;2023-08-20T12:14:48;30.40;74.30
57829;DHT22;43657;52.698;6.314;2023-08-20T12:17:19;30.60;76.60
57829;DHT22;43657;52.698;6.314;2023-08-20T12:19:54;30.90;71.80
57829;DHT22;43657;52.698;6.314;2023-08-20T12:22:34;31.00;69.60
57829;DHT22;43657;52.698;6.314;2023-08-20T12:25:09;31.20;68.60
57829;DHT22;43657;52.698;6.314;2023-08-20T12:27:38;31.30;70.50
57829;DHT22;43657;52.698;6.314;2023-08-20T12:30:13;31.10;67.30
57829;DHT22;43657;52.698;6.314;2023-08-20T12:32:39;30.50;67.40
57829;DHT22;43657;52.698;6.314;2023-08-20T12:35:11;30.20;68.80
57829;DHT22;43657;52.698;6.314;2023-08-20T12:37:48;30.30;69.10
57829;DHT22;43657;52.698;6.314;2023-08-20T12:40:17;30.20;71.00
57829;DHT22;43657;52.698;6.314;2023-08-20T12:42:45;30.10;72.20
57829;DHT22;43657;52.698;6.314;2023-08-20T12:45:11;29.90;75.50
57829;DHT22;43657;52.698;6.314;2023-08-20T12:47:42;29.80;75.00
57829;DHT22;43657;52.698;6.314;2023-08-20T12:50:10;30.00;78.10
57829;DHT22;43657;52.698;6.314;2023-08-20T12:52:41;29.90;73.60
57829;DHT22;43657;52.698;6.314;2023-08-20T12:55:08;29.40;71.50
57829;DHT22;43657;52.698;6.314;2023-08-20T12:57:55;29.30;70.20
57829;DHT22;43657;52.698;6.314;2023-08-20T13:00:25;29.30;72.20
57829;DHT22;43657;52.698;6.314;2023-08-20T13:02:55;28.90;72.60
57829;DHT22;43657;52.698;6.314;2023-08-20T13:05:22;28.70;70.90
57829;DHT22;43657;52.698;6.314;2023-08-20T13:07:49;28.30;69.70
57829;DHT22;43657;52.698;6.314;2023-08-20T13:10:15;27.80;71.80
57829;DHT22;43657;52.698;6.314;2023-08-20T13:12:51;28.10;82.00
57829;DHT22;43657;52.698;6.314;2023-08-20T13:15:27;28.90;92.90
57829;DHT22;43657;52.698;6.314;2023-08-20T13:17:57;29.70;77.20
57829;DHT22;43657;52.698;6.314;2023-08-20T13:20:23;29.90;73.00
57829;DHT22;43657;52.698;6.314;2023-08-20T13:23:07;29.80;71.00
57829;DHT22;43657;52.698;6.314;2023-08-20T13:30:24;29.30;93.60
57829;DHT22;43657;52.698;6.314;2023-08-20T13:33:52;29.50;81.00
57829;DHT22;43657;52.698;6.314;2023-08-20T13:37:14;29.80;74.20
57829;DHT22;43657;52.698;6.314;2023-08-20T13:50:55;31.30;64.80
57829;DHT22;43657;52.698;6.314;2023-08-20T13:53:27;31.30;65.20
57829;DHT22;43657;52.698;6.314;2023-08-20T13:55:54;31.40;66.40
57829;DHT22;43657;52.698;6.314;2023-08-20T13:58:21;31.40;66.40
57829;DHT22;43657;52.698;6.314;2023-08-20T14:00:47;31.40;64.20
57829;DHT22;43657;52.698;6.314;2023-08-20T14:03:22;31.50;63.80
57829;DHT22;43657;52.698;6.314;2023-08-20T14:05:50;31.60;63.00
57829;DHT22;43657;52.698;6.314;2023-08-20T14:08:16;31.70;61.70
57829;DHT22;43657;52.698;6.314;2023-08-20T14:10:42;31.70;63.40
57829;DHT22;43657;52.698;6.314;2023-08-20T14:13:08;31.90;64.70
57829;DHT22;43657;52.698;6.314;2023-08-20T14:15:35;31.90;63.30
57829;DHT22;43657;52.698;6.314;2023-08-20T14:18:09;31.80;62.30
57829;DHT22;43657;52.698;6.314;2023-08-20T14:20:35;31.70;60.40
57829;DHT22;43657;52.698;6.314;2023-08-20T14:23:01;31.70;61.10
57829;DHT22;43657;52.698;6.314;2023-08-20T14:25:28;31.60;62.00
57829;DHT22;43657;52.698;6.314;2023-08-20T14:27:54;31.50;59.70
57829;DHT22;43657;52.698;6.314;2023-08-20T14:30:22;31.20;59.00
57829;DHT22;43657;52.698;6.314;2023-08-20T14:32:48;31.10;60.90
57829;DHT22;43657;52.698;6.314;2023-08-20T14:35:14;30.80;59.90
57829;DHT22;43657;52.698;6.314;2023-08-20T14:37:40;30.10;60.20
57829;DHT22;43657;52.698;6.314;2023-08-20T14:40:06;29.70;61.30
57829;DHT22;43657;52.698;6.314;2023-08-20T14:42:33;29.20;63.20
57829;DHT22;43657;52.698;6.314;2023-08-20T14:45:00;28.70;64.80
57829;DHT22;43657;52.698;6.314;2023-08-20T14:47:34;28.30;65.90
57829;DHT22;43657;52.698;6.314;2023-08-20T14:50:03;27.90;65.50
57829;DHT22;43657;52.698;6.314;2023-08-20T14:52:29;27.60;65.80
57829;DHT22;43657;52.698;6.314;2023-08-20T14:54:58;27.20;65.40
57829;DHT22;43657;52.698;6.314;2023-08-20T14:57:27;26.80;66.00
57829;DHT22;43657;52.698;6.314;2023-08-20T14:59:53;26.40;66.50
57829;DHT22;43657;52.698;6.314;2023-08-20T15:02:18;26.10;67.90
57829;DHT22;43657;52.698;6.314;2023-08-20T15:04:44;25.90;68.40
57829;DHT22;43657;52.698;6.314;2023-08-20T15:07:10;25.60;68.60
57829;DHT22;43657;52.698;6.314;2023-08-20T15:09:39;25.40;68.20
57829;DHT22;43657;52.698;6.314;2023-08-20T15:12:06;25.10;69.90
57829;DHT22;43657;52.698;6.314;2023-08-20T15:14:33;24.90;70.80
57829;DHT22;43657;52.698;6.314;2023-08-20T15:16:58;24.80;73.40
57829;DHT22;43657;52.698;6.314;2023-08-20T15:19:24;24.60;80.20
57829;DHT22;43657;52.698;6.314;2023-08-20T15:21:52;24.50;89.90
57829;DHT22;43657;52.698;6.314;2023-08-20T15:24:18;24.40;93.00
57829;DHT22;43657;52.698;6.314;2023-08-20T15:26:44;24.30;91.10
57829;DHT22;43657;52.698;6.314;2023-08-20T15:29:10;24.10;95.60
57829;DHT22;43657;52.698;6.314;2023-08-20T15:31:36;24.00;99.90
57829;DHT22;43657;52.698;6.314;2023-08-20T15:34:21;23.90;99.90
57829;DHT22;43657;52.698;6.314;2023-08-20T15:36:47;23.90;99.90
57829;DHT22;43657;52.698;6.314;2023-08-20T15:39:16;23.80;99.90
57829;DHT22;43657;52.698;6.314;2023-08-20T15:41:45;23.70;99.90
57829;DHT22;43657;52.698;6.314;2023-08-20T15:44:14;23.60;99.90
57829;DHT22;43657;52.698;6.314;2023-08-20T15:46:43;23.50;99.90
57829;DHT22;43657;52.698;6.314;2023-08-20T15:49:09;23.50;99.90
57829;DHT22;43657;52.698;6.314;2023-08-20T15:51:35;23.40;99.90
57829;DHT22;43657;52.698;6.314;2023-08-20T15:54:01;23.40;99.90
57829;DHT22;43657;52.698;6.314;2023-08-20T15:56:31;23.30;99.90
57829;DHT22;43657;52.698;6.314;2023-08-20T15:58:57;23.20;99.90
57829;DHT22;43657;52.698;6.314;2023-08-20T16:01:24;23.20;99.90
57829;DHT22;43657;52.698;6.314;2023-08-20T16:03:53;23.10;99.90
57829;DHT22;43657;52.698;6.314;2023-08-20T16:06:19;23.00;99.90
57829;DHT22;43657;52.698;6.314;2023-08-20T16:08:48;23.00;99.90